Impacts METAR Board INFO
IDs:

KMIA - Miami Intl, FL, US

Updated at: 2124 UTC 17 Dec 2017
Potential Impact None Slight Moderate High
Time17/09Z 17/10Z 17/11Z 17/12Z 17/13Z 17/14Z 17/15Z 17/16Z 17/17Z 17/18Z 17/19Z 17/20Z 17/21Z
VIS10 10 10 10 10 10 10 10 10 10 10 10 10
CIG250 250 -- 250 250 250 250 250 250 250 30 38 41
CoverBKNBKNSCTBKNBKNBKNBKNBKNBKNBKNBKNBKNBKN
FltCatVFRVFRVFRVFRVFRVFRVFRVFRVFRVFRMVFRVFRVFR
WX--------------------------
WDir00011090110100100110110120120110
WSpd0 0 0 4 6 11 13 12 13 13 12 11 10
WGst-- -- -- -- -- -- -- -- -- -- -- -- --
Raw hourly METARs
KMIA 170853Z 00000KT 10SM FEW032 SCT050 BKN250 20/18 A3019 RMK AO2 SLP222 T02000178 56006
KMIA 170953Z 00000KT 10SM FEW032 SCT050 BKN250 19/18 A3018 RMK AO2 SLP220 T01940178
KMIA 171053Z 00000KT 10SM FEW032 SCT050 SCT250 20/18 A3020 RMK AO2 SLP225 T02000178
KMIA 171153Z 11004KT 10SM FEW035 SCT050 BKN250 21/18 A3021 RMK AO2 SLP229 T02110178 10222 20194 53007
KMIA 171253Z 09006KT 10SM FEW035 SCT055 BKN250 23/19 A3022 RMK AO2 SLP232 T02330189
KMIA 171353Z 11011KT 10SM FEW035 SCT055 BKN250 25/19 A3023 RMK AO2 SLP235 T02500189
KMIA 171453Z 10013KT 10SM FEW025 FEW055 BKN250 27/19 A3024 RMK AO2 SLP239 T02670194 53010
KMIA 171553Z 10012KT 10SM SCT027 BKN250 27/20 A3024 RMK AO2 SLP241 T02720200
KMIA 171653Z 11013KT 10SM SCT030 BKN250 28/19 A3023 RMK AO2 SLP235 T02830194
KMIA 171753Z 11013KT 10SM SCT030 BKN250 28/19 A3019 RMK AO2 SLP223 T02780189 10283 20211 58016
KMIA 171853Z 12012KT 10SM BKN030 BKN250 24/19 A3017 RMK AO2 SLP217 T02440194
KMIA 171953Z 12011KT 10SM SCT030 BKN038 BKN250 27/19 A3017 RMK AO2 SLP215 T02670194
KMIA 172053Z 11010KT 10SM SCT030 BKN041 BKN250 26/20 A3017 RMK AO2 SLP218 T02610200 55005